Tennyson, Indiana
Current Conditions -  °F | °C
As of 8:15 AM on Friday 19 Dec 2014 (Local Time) from KHNB Reporting Station
Clear Clear  
Wind Chill: 19°   Ceiling: Unl
Heat Index: 27°   Visibility: 6mi
Dew Point: 21°   Wind: 7mph
Humidity: 80%   Direction: 20°NNE
Pressure: 30.32"   Gusts: NA
Location:  38.08°N, 87.12°W
Report Text: KHNB 191415Z AUTO 02006KT 6SM CLR M03/M06 A3032 RMK AO1
Loading
Personal Weather Stations






























Interactive Weather Map New forecast layout! Learn more

10-Day Weather Forecast

Advertisements
Track Severe Weather on mobile